Terminal Aerodrome Forecast
Issued by NWS Wilmington, OH

Current Version | Previous Version | Text Only | Print | Product List | Glossary Off
Versions: 1 2 3 4 5 6 7 8 9 10 11 12 13 14 15 16 17 18 19 20 21 22

000
FTUS41 KILN 251700
TAFDAY
TAF
KDAY 251730Z 2518/2618 25015G25KT P6SM OVC015
     FM252200 23011G21KT P6SM SCT015 BKN040
     FM260000 17006KT P6SM SCT040
     FM260700 05006KT 4SM -SHRA BR OVC040
     FM261000 05006KT 3SM -SHRA BR OVC025
     FM261300 33015G25KT 2SM -SHRA BR OVC010=

USA.gov is the U.S. government's official web portal to all federal, state and local government web resources and services.